Time;durP1;ratioP1;P1;durP2;ratioP2;P2;SDS_P1;SDS_P2;PMS_P1;PMS_P2;Temp;Humidity;BMP_temperature;BMP_pressure;BME280_temperature;BME280_humidity;BME280_pressure;Samples;Min_cycle;Max_cycle;Signal;HPM_P1;HPM_P2
2022/10/24 00:03:30;;;;;;;;;;;;;;;13.51;89.38184;100316.1;;;;-76
2022/10/24 00:08:30;;;;;;;;;;;;;;;13.53;89.54102;100306.6;;;;-75
2022/10/24 00:13:29;;;;;;;;;;;;;;;13.57;89.68359;100302.7;;;;-75
2022/10/24 00:17:06;;;;;;;2.9;1.2;;;;;;;;;;;;;-75
2022/10/24 00:18:29;;;;;;;;;;;;;;;13.61;89.86035;100293.4;;;;-75
2022/10/24 00:23:29;;;;;;;;;;;;;;;13.66;90.03418;100286;;;;-76
2022/10/24 00:28:30;;;;;;;;;;;;;;;13.69;89.77441;100280.7;;;;-76
2022/10/24 00:33:30;;;;;;;;;;;;;;;13.69;89.93945;100287.7;;;;-74
2022/10/24 00:38:30;;;;;;;;;;;;;;;13.69;90.08398;100285.3;;;;-75
2022/10/24 00:43:29;;;;;;;;;;;;;;;13.69;90.30664;100278.3;;;;-74
2022/10/24 00:47:09;;;;;;;5.6;1.5;;;;;;;;;;;;;-75
2022/10/24 00:48:33;;;;;;;;;;;;;;;13.69;90.49707;100270;;;;-74
2022/10/24 00:53:31;;;;;;;;;;;;;;;13.69;90.12793;100260.9;;;;-75
2022/10/24 00:58:33;;;;;;;;;;;;;;;13.72;90.56934;100251;;;;-74
2022/10/24 01:03:29;;;;;;;;;;;;;;;13.75;90.91895;100238.2;;;;-74
2022/10/24 01:08:35;;;;;;;;;;;;;;;13.79;91.16016;100252.1;;;;-74
2022/10/24 01:13:35;;;;;;;;;;;;;;;13.85;90.97363;100244.6;;;;-75
2022/10/24 01:17:10;;;;;;;6.2;1.7;;;;;;;;;;;;;-75
2022/10/24 01:18:33;;;;;;;;;;;;;;;13.86;91.04395;100232.6;;;;-74
2022/10/24 01:23:48;;;;;;;;;;;;;;;13.89;91.10254;100229.3;;;;-75
2022/10/24 01:28:33;;;;;;;;;;;;;;;13.96;90.89746;100231.6;;;;-72
2022/10/24 01:33:32;;;;;;;;;;;;;;;13.97;90.6748;100214.7;;;;-75
2022/10/24 01:38:34;;;;;;;;;;;;;;;13.98;90.60156;100211;;;;-75
2022/10/24 01:43:31;;;;;;;;;;;;;;;13.99;90.4248;100207.3;;;;-73
2022/10/24 01:47:12;;;;;;;6.5;1.9;;;;;;;;;;;;;-75
2022/10/24 01:48:31;;;;;;;;;;;;;;;13.99;90.49219;100204.7;;;;-74
2022/10/24 01:53:33;;;;;;;;;;;;;;;13.99;90.25781;100190.2;;;;-75
2022/10/24 01:58:30;;;;;;;;;;;;;;;14.01;90.35059;100188.1;;;;-75
2022/10/24 02:03:32;;;;;;;;;;;;;;;14.04;90.07813;100189.3;;;;-76
2022/10/24 02:08:32;;;;;;;;;;;;;;;14.05;89.80273;100183.4;;;;-73
2022/10/24 02:13:32;;;;;;;;;;;;;;;14.07;89.41699;100163.3;;;;-75
2022/10/24 02:17:11;;;;;;;8.6;1.8;;;;;;;;;;;;;-75
2022/10/24 02:18:30;;;;;;;;;;;;;;;14.1;89.3125;100164;;;;-75
2022/10/24 02:23:37;;;;;;;;;;;;;;;14.07;88.84961;100157.8;;;;-73
2022/10/24 02:28:32;;;;;;;;;;;;;;;14.03;88.77539;100150.5;;;;-74
2022/10/24 02:33:30;;;;;;;;;;;;;;;14;88.5459;100154.9;;;;-75
2022/10/24 02:38:32;;;;;;;;;;;;;;;13.95;88.48047;100146.2;;;;-74
2022/10/24 02:43:31;;;;;;;;;;;;;;;13.94;88.17871;100154;;;;-74
2022/10/24 02:47:14;;;;;;;5.6;1.5;;;;;;;;;;;;;-75
2022/10/24 02:48:31;;;;;;;;;;;;;;;13.9;87.98242;100149.3;;;;-74
2022/10/24 02:53:31;;;;;;;;;;;;;;;13.89;87.79102;100155.7;;;;-74
2022/10/24 02:58:29;;;;;;;;;;;;;;;13.86;87.66211;100151.7;;;;-74
2022/10/24 03:03:29;;;;;;;;;;;;;;;13.88;87.36523;100160.2;;;;-75
2022/10/24 03:08:30;;;;;;;;;;;;;;;13.88;87.1875;100153;;;;-74
2022/10/24 03:13:29;;;;;;;;;;;;;;;13.89;86.90137;100148.8;;;;-74
2022/10/24 03:17:14;;;;;;;4.6;1.4;;;;;;;;;;;;;-75
2022/10/24 03:18:29;;;;;;;;;;;;;;;13.86;86.72754;100142.1;;;;-74
2022/10/24 03:23:30;;;;;;;;;;;;;;;13.86;86.68262;100142.8;;;;-76
2022/10/24 03:28:29;;;;;;;;;;;;;;;13.87;86.41699;100135;;;;-74
2022/10/24 03:33:29;;;;;;;;;;;;;;;13.85;86.14648;100133.7;;;;-74
2022/10/24 03:38:30;;;;;;;;;;;;;;;13.84;85.97949;100131.1;;;;-75
2022/10/24 03:43:29;;;;;;;;;;;;;;;13.85;85.67969;100126.2;;;;-75
2022/10/24 03:47:15;;;;;;;6.1;1.5;;;;;;;;;;;;;-74
2022/10/24 03:48:30;;;;;;;;;;;;;;;13.83;85.46387;100127.1;;;;-75
2022/10/24 03:53:29;;;;;;;;;;;;;;;13.81;85.39258;100122.7;;;;-73
2022/10/24 03:58:29;;;;;;;;;;;;;;;13.82;85.09473;100129.2;;;;-74
2022/10/24 04:03:30;;;;;;;;;;;;;;;13.85;84.85547;100124;;;;-74
2022/10/24 04:08:30;;;;;;;;;;;;;;;13.86;84.53418;100132.3;;;;-75
2022/10/24 04:13:29;;;;;;;;;;;;;;;13.86;84.27832;100124.7;;;;-75
2022/10/24 04:17:18;;;;;;;6.7;1.2;;;;;;;;;;;;;-75
2022/10/24 04:18:29;;;;;;;;;;;;;;;13.85;83.87598;100129;;;;-74
2022/10/24 04:23:34;;;;;;;;;;;;;;;13.86;82.98828;100139.5;;;;-73
2022/10/24 04:28:29;;;;;;;;;;;;;;;13.86;82.85449;100143;;;;-74
2022/10/24 04:33:29;;;;;;;;;;;;;;;13.85;82.85059;100143.2;;;;-75
2022/10/24 04:38:29;;;;;;;;;;;;;;;13.87;82.36426;100121;;;;-73
2022/10/24 04:43:29;;;;;;;;;;;;;;;13.94;81.43066;100119.3;;;;-75
2022/10/24 04:47:18;;;;;;;4.1;0.9;;;;;;;;;;;;;-74
2022/10/24 04:48:29;;;;;;;;;;;;;;;13.97;81.10254;100124.2;;;;-73
2022/10/24 04:53:29;;;;;;;;;;;;;;;13.98;80.80176;100120.7;;;;-73
2022/10/24 04:58:29;;;;;;;;;;;;;;;13.95;80.72949;100120.5;;;;-75
2022/10/24 05:03:29;;;;;;;;;;;;;;;13.93;80.92676;100118;;;;-74
2022/10/24 05:08:29;;;;;;;;;;;;;;;13.9;80.91992;100117.4;;;;-75
2022/10/24 05:13:29;;;;;;;;;;;;;;;13.89;81.05371;100121;;;;-73
2022/10/24 05:17:20;;;;;;;5;1;;;;;;;;;;;;;-74
2022/10/24 05:18:29;;;;;;;;;;;;;;;13.95;80.62891;100113.7;;;;-73
2022/10/24 05:23:30;;;;;;;;;;;;;;;13.94;80.81934;100115.3;;;;-75
2022/10/24 05:28:30;;;;;;;;;;;;;;;13.97;80.66602;100119.1;;;;-73
2022/10/24 05:33:29;;;;;;;;;;;;;;;14.02;80.29688;100112.1;;;;-74
2022/10/24 05:38:31;;;;;;;;;;;;;;;14.08;79.94043;100109.8;;;;-74
2022/10/24 05:43:29;;;;;;;;;;;;;;;14.09;80.00879;100117.6;;;;-74
2022/10/24 05:47:22;;;;;;;4.2;0.9;;;;;;;;;;;;;-73
2022/10/24 05:48:29;;;;;;;;;;;;;;;14.12;79.96973;100104.2;;;;-75
2022/10/24 05:53:30;;;;;;;;;;;;;;;14.18;79.47852;100097;;;;-74
2022/10/24 05:58:29;;;;;;;;;;;;;;;14.23;79.23047;100088.5;;;;-73
2022/10/24 06:03:29;;;;;;;;;;;;;;;14.27;79.02441;100091.6;;;;-74
2022/10/24 06:08:30;;;;;;;;;;;;;;;14.28;79.0166;100093.8;;;;-76
2022/10/24 06:13:30;;;;;;;;;;;;;;;14.3;78.95117;100100.4;;;;-76
2022/10/24 06:17:24;;;;;;;4.9;0.9;;;;;;;;;;;;;-73
2022/10/24 06:18:29;;;;;;;;;;;;;;;14.33;78.85742;100095.6;;;;-74
2022/10/24 06:23:29;;;;;;;;;;;;;;;14.37;78.71875;100107.3;;;;-75
2022/10/24 06:28:29;;;;;;;;;;;;;;;14.43;78.5293;100112.5;;;;-74
2022/10/24 06:33:29;;;;;;;;;;;;;;;14.44;79.11133;100113;;;;-74
2022/10/24 06:38:30;;;;;;;;;;;;;;;14.41;79.45117;100116.2;;;;-74
2022/10/24 06:43:29;;;;;;;;;;;;;;;14.41;79.33008;100121.7;;;;-76
2022/10/24 06:47:27;;;;;;;6.4;0.8;;;;;;;;;;;;;-75
2022/10/24 06:48:29;;;;;;;;;;;;;;;14.48;78.89648;100139.5;;;;-74
2022/10/24 06:53:30;;;;;;;;;;;;;;;14.49;78.8623;100145.8;;;;-76
2022/10/24 06:58:32;;;;;;;;;;;;;;;14.54;78.81641;100155.7;;;;-76
2022/10/24 07:03:29;;;;;;;;;;;;;;;14.54;80.32422;100188.1;;;;-73
2022/10/24 07:08:29;;;;;;;;;;;;;;;14.43;81.13086;100186.5;;;;-75
2022/10/24 07:13:29;;;;;;;;;;;;;;;14.35;81.49512;100196;;;;-74
2022/10/24 07:17:26;;;;;;;7.1;0.9;;;;;;;;;;;;;-74
2022/10/24 07:18:29;;;;;;;;;;;;;;;14.35;81.47266;100211.4;;;;-75
2022/10/24 07:23:32;;;;;;;;;;;;;;;14.34;81.4707;100220;;;;-74
2022/10/24 07:28:29;;;;;;;;;;;;;;;14.31;81.77832;100218.6;;;;-74
2022/10/24 07:33:29;;;;;;;;;;;;;;;14.31;82.18945;100236.9;;;;-74
2022/10/24 07:38:29;;;;;;;;;;;;;;;14.32;82.33789;100241.3;;;;-75
2022/10/24 07:43:29;;;;;;;;;;;;;;;14.3;82.46582;100242.5;;;;-75
2022/10/24 07:47:28;;;;;;;5.2;0.8;;;;;;;;;;;;;-75
2022/10/24 07:48:29;;;;;;;;;;;;;;;14.27;82.61914;100251.1;;;;-75
2022/10/24 07:53:29;;;;;;;;;;;;;;;14.27;82.74023;100254.8;;;;-76
2022/10/24 07:58:30;;;;;;;;;;;;;;;14.25;82.95996;100238.9;;;;-77
2022/10/24 08:03:29;;;;;;;;;;;;;;;14.27;83.19727;100256.7;;;;-76
2022/10/24 08:08:29;;;;;;;;;;;;;;;14.32;83.18555;100245;;;;-74
2022/10/24 08:13:29;;;;;;;;;;;;;;;14.39;83.08594;100253.2;;;;-76
2022/10/24 08:17:29;;;;;;;5.8;1;;;;;;;;;;;;;-74
2022/10/24 08:18:30;;;;;;;;;;;;;;;14.41;83.02344;100263.2;;;;-74
2022/10/24 08:23:30;;;;;;;;;;;;;;;14.46;83.12305;100286.2;;;;-76
2022/10/24 08:28:32;;;;;;;;;;;;;;;14.54;83.07031;100289.9;;;;-75
2022/10/24 08:33:30;;;;;;;;;;;;;;;14.68;82.74023;100291.8;;;;-75
2022/10/24 08:38:30;;;;;;;;;;;;;;;14.74;82.04688;100298.7;;;;-75
2022/10/24 08:43:30;;;;;;;;;;;;;;;14.9;81.20508;100285;;;;-75
2022/10/24 08:47:35;;;;;;;6.3;1;;;;;;;;;;;;;-74
2022/10/24 08:48:31;;;;;;;;;;;;;;;14.92;81.20801;100300.7;;;;-76
2022/10/24 08:53:30;;;;;;;;;;;;;;;14.92;80.93066;100313.5;;;;-75
2022/10/24 08:58:31;;;;;;;;;;;;;;;15.15;80.01074;100319.8;;;;-75
2022/10/24 09:03:32;;;;;;;;;;;;;;;15.3;79.13086;100313.2;;;;-75
2022/10/24 09:08:32;;;;;;;;;;;;;;;15.29;79.0957;100317.8;;;;-76
2022/10/24 09:13:33;;;;;;;;;;;;;;;15.52;78.84668;100329.8;;;;-75
2022/10/24 09:17:35;;;;;;;6;1.1;;;;;;;;;;;;;-75
2022/10/24 09:18:31;;;;;;;;;;;;;;;15.79;77.96387;100340.8;;;;-76
2022/10/24 09:23:30;;;;;;;;;;;;;;;16.01;77.02832;100345.4;;;;-74
2022/10/24 09:28:29;;;;;;;;;;;;;;;16.26;76.63281;100363;;;;-75
2022/10/24 09:33:31;;;;;;;;;;;;;;;16.38;75.98145;100364.1;;;;-75
2022/10/24 09:38:39;;;;;;;;;;;;;;;16.38;76.38379;100370.2;;;;-75
2022/10/24 09:43:34;;;;;;;;;;;;;;;16.51;75.84473;100373.7;;;;-74
2022/10/24 09:47:38;;;;;;;10.3;1.1;;;;;;;;;;;;;-73
2022/10/24 09:48:34;;;;;;;;;;;;;;;16.69;75.5498;100383.4;;;;-76
2022/10/24 09:53:32;;;;;;;;;;;;;;;16.91;74.78906;100393.7;;;;-76
2022/10/24 09:58:32;;;;;;;;;;;;;;;17.09;73.67188;100373.9;;;;-75
2022/10/24 10:03:29;;;;;;;;;;;;;;;17.18;73.33789;100402;;;;-76
2022/10/24 10:08:31;;;;;;;;;;;;;;;17.2;72.53223;100396.8;;;;-76
2022/10/24 10:13:30;;;;;;;;;;;;;;;17.22;72.55566;100417.9;;;;-75
2022/10/24 10:17:36;;;;;;;8.4;1.2;;;;;;;;;;;;;-76
2022/10/24 10:18:37;;;;;;;;;;;;;;;17.2;72.59961;100422;;;;-75
2022/10/24 10:23:32;;;;;;;;;;;;;;;17.26;72.10156;100433.8;;;;-73
2022/10/24 10:28:30;;;;;;;;;;;;;;;17.24;72.07422;100448.4;;;;-74
2022/10/24 10:33:35;;;;;;;;;;;;;;;17.16;72.23145;100444.4;;;;-74
2022/10/24 10:38:41;;;;;;;;;;;;;;;17.08;71.53125;100460.1;;;;-73
2022/10/24 10:43:38;;;;;;;;;;;;;;;16.96;71.99609;100463.7;;;;-76
2022/10/24 10:47:45;;;;;;;6.9;1.2;;;;;;;;;;;;;-75
2022/10/24 10:48:36;;;;;;;;;;;;;;;16.91;71.94238;100471.5;;;;-75
2022/10/24 10:53:35;;;;;;;;;;;;;;;17;72.1377;100484.8;;;;-75
2022/10/24 10:58:33;;;;;;;;;;;;;;;17.05;72.23633;100491.7;;;;-74
2022/10/24 11:03:36;;;;;;;;;;;;;;;17.18;71.87402;100489.5;;;;-76
2022/10/24 11:08:38;;;;;;;;;;;;;;;17.3;70.98047;100499.7;;;;-75
2022/10/24 11:13:30;;;;;;;;;;;;;;;17.37;71.02441;100504.3;;;;-74
2022/10/24 11:17:43;;;;;;;7.6;1.1;;;;;;;;;;;;;-76
2022/10/24 11:18:33;;;;;;;;;;;;;;;17.29;70.4375;100519.5;;;;-74
2022/10/24 11:23:34;;;;;;;;;;;;;;;17.12;70.57031;100514.7;;;;-75
2022/10/24 11:28:31;;;;;;;;;;;;;;;17;70.67383;100528.6;;;;-75
2022/10/24 11:33:32;;;;;;;;;;;;;;;16.85;70.88574;100534.6;;;;-73
2022/10/24 11:38:30;;;;;;;;;;;;;;;16.77;71.46094;100542.5;;;;-74
2022/10/24 11:43:32;;;;;;;;;;;;;;;16.84;71.14258;100559.2;;;;-74
2022/10/24 11:48:01;;;;;;;6.2;0.9;;;;;;;;;;;;;-78
2022/10/24 11:48:33;;;;;;;;;;;;;;;16.89;71.50098;100561;;;;-74
2022/10/24 11:53:41;;;;;;;;;;;;;;;16.89;71.69238;100554.8;;;;-74
2022/10/24 11:58:30;;;;;;;;;;;;;;;16.86;70.66309;100561.8;;;;-75
2022/10/24 12:03:39;;;;;;;;;;;;;;;16.79;70.85449;100559.7;;;;-74
2022/10/24 12:08:40;;;;;;;;;;;;;;;16.84;71.44727;100568.9;;;;-74
2022/10/24 12:13:44;;;;;;;;;;;;;;;16.85;71.23633;100576.6;;;;-74
2022/10/24 12:17:54;;;;;;;5.2;0.9;;;;;;;;;;;;;-75
2022/10/24 12:18:34;;;;;;;;;;;;;;;16.75;72.33398;100574.8;;;;-73
2022/10/24 12:23:30;;;;;;;;;;;;;;;16.73;72.58984;100599;;;;-73
2022/10/24 12:28:29;;;;;;;;;;;;;;;16.66;73.21875;100587.5;;;;-74
2022/10/24 12:33:30;;;;;;;;;;;;;;;16.62;73.60449;100591.6;;;;-74
2022/10/24 12:38:41;;;;;;;;;;;;;;;16.56;74.04492;100600.4;;;;-75
2022/10/24 12:43:37;;;;;;;;;;;;;;;16.57;74.40625;100592.8;;;;-75
2022/10/24 12:47:57;;;;;;;4.6;1.1;;;;;;;;;;;;;-74
2022/10/24 12:48:37;;;;;;;;;;;;;;;16.45;74.59961;100606.4;;;;-75
2022/10/24 12:53:52;;;;;;;;;;;;;;;16.47;74.69238;100604.2;;;;-73
2022/10/24 12:58:32;;;;;;;;;;;;;;;16.46;75.0957;100616.7;;;;-75
2022/10/24 13:03:38;;;;;;;;;;;;;;;16.48;74.98828;100627.2;;;;-75
2022/10/24 13:08:37;;;;;;;;;;;;;;;16.46;75.19629;100618.8;;;;-75
2022/10/24 13:13:50;;;;;;;;;;;;;;;16.48;75.08887;100610;;;;-75
2022/10/24 13:17:54;;;;;;;3.7;0.8;;;;;;;;;;;;;-76
2022/10/24 13:18:42;;;;;;;;;;;;;;;16.52;74.8916;100612.8;;;;-74
2022/10/24 13:23:30;;;;;;;;;;;;;;;16.46;74.9834;100613.4;;;;-75
2022/10/24 13:28:44;;;;;;;;;;;;;;;16.43;74.97852;100623.3;;;;-74
2022/10/24 13:33:42;;;;;;;;;;;;;;;16.45;74.98145;100625.5;;;;-75
2022/10/24 13:38:32;;;;;;;;;;;;;;;16.42;75.16602;100625.1;;;;-78
2022/10/24 13:43:31;;;;;;;;;;;;;;;16.42;75.32422;100626.8;;;;-76
2022/10/24 13:47:53;;;;;;;5.4;0.9;;;;;;;;;;;;;-75
2022/10/24 13:48:31;;;;;;;;;;;;;;;16.42;75.12109;100632.7;;;;-75
2022/10/24 13:53:32;;;;;;;;;;;;;;;16.42;75.17969;100640.8;;;;-74
2022/10/24 13:58:29;;;;;;;;;;;;;;;16.39;75.27441;100637.3;;;;-77
2022/10/24 14:03:31;;;;;;;;;;;;;;;16.4;75.29785;100638.8;;;;-74
2022/10/24 14:08:31;;;;;;;;;;;;;;;16.44;75.14844;100641.9;;;;-76
2022/10/24 14:13:31;;;;;;;;;;;;;;;16.47;75.01855;100645.7;;;;-74
2022/10/24 14:18:01;;;;;;;6.3;1;;;;;;;;;;;;;-76
2022/10/24 14:18:29;;;;;;;;;;;;;;;16.47;74.64746;100647.4;;;;-74
2022/10/24 14:23:31;;;;;;;;;;;;;;;16.44;74.7666;100656.3;;;;-75
2022/10/24 14:28:31;;;;;;;;;;;;;;;16.46;74.75879;100664.9;;;;-75
2022/10/24 14:33:31;;;;;;;;;;;;;;;16.4;74.88281;100668.7;;;;-75
2022/10/24 14:38:30;;;;;;;;;;;;;;;16.31;74.9248;100665.5;;;;-75
2022/10/24 14:43:31;;;;;;;;;;;;;;;16.26;75.24121;100669.1;;;;-75
2022/10/24 14:47:58;;;;;;;4.1;0.8;;;;;;;;;;;;;-75
2022/10/24 14:48:31;;;;;;;;;;;;;;;16.25;75.58789;100676.3;;;;-75
2022/10/24 14:53:31;;;;;;;;;;;;;;;16.21;75.58203;100681.3;;;;-76
2022/10/24 14:58:32;;;;;;;;;;;;;;;16.2;75.83789;100685.2;;;;-75
2022/10/24 15:03:30;;;;;;;;;;;;;;;16.17;76.10156;100693.6;;;;-75
2022/10/24 15:08:37;;;;;;;;;;;;;;;16.12;76.31836;100703.1;;;;-74
2022/10/24 15:13:29;;;;;;;;;;;;;;;16.02;76.63672;100692.7;;;;-75
2022/10/24 15:18:00;;;;;;;7.3;1.1;;;;;;;;;;;;;-74
2022/10/24 15:18:30;;;;;;;;;;;;;;;15.97;76.86133;100701.9;;;;-76
2022/10/24 15:23:32;;;;;;;;;;;;;;;15.9;77.15332;100699.5;;;;-75
2022/10/24 15:28:47;;;;;;;;;;;;;;;15.84;77.18848;100704.5;;;;-75
2022/10/24 15:33:31;;;;;;;;;;;;;;;15.75;77.38574;100703;;;;-75
2022/10/24 15:38:32;;;;;;;;;;;;;;;15.68;77.58594;100703;;;;-75
2022/10/24 15:43:30;;;;;;;;;;;;;;;15.6;77.78613;100711.9;;;;-75
2022/10/24 15:48:00;;;;;;;8.8;1.4;;;;;;;;;;;;;-77
2022/10/24 15:48:30;;;;;;;;;;;;;;;15.55;78.22461;100709.1;;;;-74
2022/10/24 15:53:29;;;;;;;;;;;;;;;15.52;78.51074;100706.8;;;;-74
2022/10/24 15:58:30;;;;;;;;;;;;;;;15.45;79.0459;100717;;;;-75
2022/10/24 16:03:29;;;;;;;;;;;;;;;15.39;78.99023;100726;;;;-74
2022/10/24 16:08:29;;;;;;;;;;;;;;;15.33;78.94824;100725.7;;;;-75
2022/10/24 16:13:29;;;;;;;;;;;;;;;15.27;79.46094;100729.8;;;;-75
2022/10/24 16:18:01;;;;;;;8.6;1.3;;;;;;;;;;;;;-75
2022/10/24 16:18:29;;;;;;;;;;;;;;;15.21;79.50781;100738.1;;;;-77
2022/10/24 16:23:30;;;;;;;;;;;;;;;15.19;79.61621;100744.3;;;;-74
2022/10/24 16:28:30;;;;;;;;;;;;;;;15.13;79.72559;100749.5;;;;-76
2022/10/24 16:33:29;;;;;;;;;;;;;;;15.07;79.90625;100750;;;;-76
2022/10/24 16:38:30;;;;;;;;;;;;;;;15.03;80.24609;100751.5;;;;-75
2022/10/24 16:43:30;;;;;;;;;;;;;;;14.96;80.2998;100763.8;;;;-76
2022/10/24 16:48:03;;;;;;;8.1;1.3;;;;;;;;;;;;;-74
2022/10/24 16:48:30;;;;;;;;;;;;;;;14.88;80.43164;100771.7;;;;-74
2022/10/24 16:53:29;;;;;;;;;;;;;;;14.81;80.82129;100778.5;;;;-74
2022/10/24 16:58:29;;;;;;;;;;;;;;;14.72;80.87109;100784.2;;;;-78
2022/10/24 17:03:29;;;;;;;;;;;;;;;14.62;81.08789;100788.7;;;;-75
2022/10/24 17:08:29;;;;;;;;;;;;;;;14.53;81.04883;100798.3;;;;-76
2022/10/24 17:13:30;;;;;;;;;;;;;;;14.43;80.80859;100802;;;;-74
2022/10/24 17:18:06;;;;;;;7.5;1.4;;;;;;;;;;;;;-75
2022/10/24 17:18:29;;;;;;;;;;;;;;;14.33;79.75195;100804.7;;;;-74
2022/10/24 17:23:30;;;;;;;;;;;;;;;14.23;80.02246;100805.3;;;;-74
2022/10/24 17:28:30;;;;;;;;;;;;;;;14.12;80.18164;100805.3;;;;-74
2022/10/24 17:33:29;;;;;;;;;;;;;;;14.05;80.25879;100806.5;;;;-74
2022/10/24 17:38:38;;;;;;;;;;;;;;;13.96;80.33008;100815.4;;;;-74
2022/10/24 17:43:30;;;;;;;;;;;;;;;13.9;80.61914;100816.2;;;;-74
2022/10/24 17:48:06;;;;;;;6.2;1.2;;;;;;;;;;;;;-74
2022/10/24 17:48:29;;;;;;;;;;;;;;;13.86;80.74609;100827.7;;;;-74
2022/10/24 17:53:29;;;;;;;;;;;;;;;13.81;80.88184;100834.8;;;;-74
2022/10/24 17:58:30;;;;;;;;;;;;;;;13.78;80.80957;100840;;;;-77
2022/10/24 18:03:31;;;;;;;;;;;;;;;13.71;81.38867;100846.3;;;;-76
2022/10/24 18:08:30;;;;;;;;;;;;;;;13.69;81.87305;100850.9;;;;-74
2022/10/24 18:13:29;;;;;;;;;;;;;;;13.66;82.36035;100858.3;;;;-74
2022/10/24 18:18:08;;;;;;;10.5;1.7;;;;;;;;;;;;;-76
2022/10/24 18:18:29;;;;;;;;;;;;;;;13.6;81.97949;100860.2;;;;-74
2022/10/24 18:23:37;;;;;;;;;;;;;;;13.55;82.21582;100867.6;;;;-76
2022/10/24 18:28:30;;;;;;;;;;;;;;;13.51;82.20898;100872;;;;-74
2022/10/24 18:33:29;;;;;;;;;;;;;;;13.45;82.23047;100876;;;;-75
2022/10/24 18:38:29;;;;;;;;;;;;;;;13.36;82.21289;100874.4;;;;-75
2022/10/24 18:43:30;;;;;;;;;;;;;;;13.3;82.53711;100873;;;;-75
2022/10/24 18:48:11;;;;;;;8.8;1.9;;;;;;;;;;;;;-75
2022/10/24 18:48:30;;;;;;;;;;;;;;;13.28;82.35352;100873.1;;;;-76
2022/10/24 18:53:34;;;;;;;;;;;;;;;13.22;82.39941;100880.7;;;;-76
2022/10/24 18:58:29;;;;;;;;;;;;;;;13.14;82.38574;100879.1;;;;-77
2022/10/24 19:03:35;;;;;;;;;;;;;;;13.1;82.26563;100882.6;;;;-74
2022/10/24 19:08:30;;;;;;;;;;;;;;;13.06;82.2793;100882.6;;;;-74
2022/10/24 19:13:30;;;;;;;;;;;;;;;13.01;82.5957;100883.3;;;;-75
2022/10/24 19:18:11;;;;;;;10;1.7;;;;;;;;;;;;;-75
2022/10/24 19:18:29;;;;;;;;;;;;;;;12.97;82.78711;100883.2;;;;-75
2022/10/24 19:23:29;;;;;;;;;;;;;;;12.92;83.12109;100886.3;;;;-75
2022/10/24 19:28:31;;;;;;;;;;;;;;;12.93;82.96777;100886.2;;;;-74
2022/10/24 19:33:30;;;;;;;;;;;;;;;12.92;83.08789;100887.8;;;;-74
2022/10/24 19:38:30;;;;;;;;;;;;;;;12.88;83.42383;100889.2;;;;-75
2022/10/24 19:43:32;;;;;;;;;;;;;;;12.83;84.13867;100888.5;;;;-75
2022/10/24 19:48:13;;;;;;;8.9;1.8;;;;;;;;;;;;;-76
2022/10/24 19:48:29;;;;;;;;;;;;;;;12.84;83.4502;100890.6;;;;-74
2022/10/24 19:53:29;;;;;;;;;;;;;;;12.79;83.31738;100886.1;;;;-75
2022/10/24 19:58:29;;;;;;;;;;;;;;;12.77;83.58301;100885.3;;;;-75
2022/10/24 20:03:31;;;;;;;;;;;;;;;12.72;83.70703;100883.6;;;;-75
2022/10/24 20:08:29;;;;;;;;;;;;;;;12.7;83.35742;100886.4;;;;-77
2022/10/24 20:13:29;;;;;;;;;;;;;;;12.66;83.56055;100890.4;;;;-76
2022/10/24 20:18:12;;;;;;;8.4;1.8;;;;;;;;;;;;;-76
2022/10/24 20:18:30;;;;;;;;;;;;;;;12.62;83.91016;100892.6;;;;-74
2022/10/24 20:23:29;;;;;;;;;;;;;;;12.63;84.00098;100892.9;;;;-74
2022/10/24 20:28:29;;;;;;;;;;;;;;;12.57;83.94434;100898;;;;-76
2022/10/24 20:33:29;;;;;;;;;;;;;;;12.55;83.7832;100902.7;;;;-75
2022/10/24 20:38:32;;;;;;;;;;;;;;;12.54;83.92773;100907.9;;;;-74
2022/10/24 20:43:29;;;;;;;;;;;;;;;12.53;84.47949;100908.3;;;;-76
2022/10/24 20:48:13;;;;;;;7.4;1.7;;;;;;;;;;;;;-75
2022/10/24 20:48:29;;;;;;;;;;;;;;;12.5;84.47461;100919.4;;;;-74
2022/10/24 20:53:33;;;;;;;;;;;;;;;12.49;84.56152;100933.6;;;;-74
2022/10/24 20:58:29;;;;;;;;;;;;;;;12.5;84.68555;100933.3;;;;-76
2022/10/24 21:03:29;;;;;;;;;;;;;;;12.47;84.82422;100937.6;;;;-76
2022/10/24 21:08:29;;;;;;;;;;;;;;;12.45;84.98535;100947.3;;;;-75
2022/10/24 21:13:29;;;;;;;;;;;;;;;12.42;84.88086;100947.3;;;;-76
2022/10/24 21:18:16;;;;;;;7;1.8;;;;;;;;;;;;;-77
2022/10/24 21:18:29;;;;;;;;;;;;;;;12.45;84.83203;100949.9;;;;-75
2022/10/24 21:23:29;;;;;;;;;;;;;;;12.44;85.15039;100957.6;;;;-75
2022/10/24 21:28:30;;;;;;;;;;;;;;;12.44;85.27441;100972.2;;;;-75
2022/10/24 21:33:29;;;;;;;;;;;;;;;12.45;85.58496;100974.6;;;;-74
2022/10/24 21:38:29;;;;;;;;;;;;;;;12.44;85.74023;100972.2;;;;-75
2022/10/24 21:43:29;;;;;;;;;;;;;;;12.45;85.51855;100973.8;;;;-75
2022/10/24 21:48:15;;;;;;;7.7;1.7;;;;;;;;;;;;;-76
2022/10/24 21:48:29;;;;;;;;;;;;;;;12.45;85.51953;100982.5;;;;-76
2022/10/24 21:53:32;;;;;;;;;;;;;;;12.49;85.78223;100985.1;;;;-74
2022/10/24 21:58:29;;;;;;;;;;;;;;;12.47;85.74512;100986.3;;;;-75
2022/10/24 22:03:29;;;;;;;;;;;;;;;12.46;85.89844;100991.8;;;;-77
2022/10/24 22:08:29;;;;;;;;;;;;;;;12.46;85.875;100991.4;;;;-75
2022/10/24 22:13:30;;;;;;;;;;;;;;;12.46;85.78809;100994.8;;;;-74
2022/10/24 22:18:16;;;;;;;6.9;1.8;;;;;;;;;;;;;-73
2022/10/24 22:18:31;;;;;;;;;;;;;;;12.42;86.14648;100995;;;;-75
2022/10/24 22:23:30;;;;;;;;;;;;;;;12.45;86.5166;100998.5;;;;-75
2022/10/24 22:28:29;;;;;;;;;;;;;;;12.4;86.44141;100995.6;;;;-75
2022/10/24 22:33:32;;;;;;;;;;;;;;;12.38;86.25781;101001.8;;;;-75
2022/10/24 22:38:29;;;;;;;;;;;;;;;12.36;87.00879;101008.1;;;;-75
2022/10/24 22:43:30;;;;;;;;;;;;;;;12.44;86.60547;101013;;;;-74
2022/10/24 22:48:19;;;;;;;9.2;2.1;;;;;;;;;;;;;-74
2022/10/24 22:48:32;;;;;;;;;;;;;;;12.44;86.32617;101011.7;;;;-74
2022/10/24 22:53:30;;;;;;;;;;;;;;;12.49;86.75879;101015.4;;;;-74
2022/10/24 22:58:29;;;;;;;;;;;;;;;12.47;87.17578;101018.2;;;;-75
2022/10/24 23:03:34;;;;;;;;;;;;;;;12.48;87.00098;101031.2;;;;-75
2022/10/24 23:08:33;;;;;;;;;;;;;;;12.48;87.09863;101032.9;;;;-73
2022/10/24 23:13:29;;;;;;;;;;;;;;;12.51;86.99512;101027.4;;;;-76
2022/10/24 23:18:19;;;;;;;6.9;1.8;;;;;;;;;;;;;-73
2022/10/24 23:18:29;;;;;;;;;;;;;;;12.54;87.66797;101029.6;;;;-73
2022/10/24 23:23:30;;;;;;;;;;;;;;;12.52;87.03027;101029.5;;;;-74
2022/10/24 23:28:33;;;;;;;;;;;;;;;12.52;87.44238;101033.7;;;;-75
2022/10/24 23:33:30;;;;;;;;;;;;;;;12.52;87.89746;101041.2;;;;-75
2022/10/24 23:38:32;;;;;;;;;;;;;;;12.47;87.93066;101043.4;;;;-74
2022/10/24 23:43:29;;;;;;;;;;;;;;;12.48;87.875;101049.8;;;;-74
2022/10/24 23:48:24;;;;;;;8.5;1.7;;;;;;;;;;;;;-75
2022/10/24 23:48:44;;;;;;;;;;;;;;;12.48;87.76367;101063.3;;;;-74
2022/10/24 23:53:36;;;;;;;;;;;;;;;12.47;88.2627;101068;;;;-75
2022/10/24 23:58:29;;;;;;;;;;;;;;;12.48;88.05273;101060.6;;;;-74
